Loxahatchee, FL (33470)

7:26 PM EST on February 05, 2016 (GMT -0500)
Loxahatchee Groves | | Change Station
CLOSE
Current Station
Personal Weather Station
Location: Loxahatchee, FL
Elevation: 49 ft
Nearby Weather Stations

Elev 49 ft 26.71 °N, 80.28 °W | Updated 38 seconds ago

Mostly Cloudy
Mostly Cloudy
63.9 °F
Feels Like 63.9 °F
N
0.4
Wind Variable Wind from WSW
Gusts 2.5 mph

Today
High -- | Low -- °F
--% Chance of Precip.
Yesterday
High -- | Low -- °F
Precip. -- in
Pressure 30.17 in
Visibility 10.0 miles
Clouds Mostly Cloudy 3300 ft
Overcast 4600 ft
Dew Point 56 °F
Humidity 77%
Rainfall in
Snow Depth Not available.
7:04 AM 6:06 PM
Waning Crescent, 8% visible
METAR KPBI 052353Z 02013KT 10SM BKN033 OVC046 20/12 A3017 RMK AO2 SLP214 T02000122 10200 20183 51006
Pressure 30.17 in
Visibility 10.0 miles
Clouds Mostly Cloudy 3300 ft
Overcast 4600 ft
Dew Point 56 °F
Humidity 77%
Rainfall in
Snow Depth Not available.
7:04 AM 6:06 PM
Waning Crescent, 8% visible
METAR KPBI 052353Z 02013KT 10SM BKN033 OVC046 20/12 A3017 RMK AO2 SLP214 T02000122 10200 20183 51006

10-Day Weather Forecast

Almanac

Astronomy

Feb. 05, 2016 Rise Set
Actual Time
Civil Twilight
Nautical Twilight
Astronomical Twilight
Moon
Length of Visible Light
Length of Day
Tomorrow will be .
, % of the Moon is Illuminated

Today's Extremes

State Highs State Lows

Community

WunderPhotos

Upload Photos

1,890,897 photos uploaded!

WunderBlog® & News

Nearby

Air Quality

  Air Quality AQ Index Pollutant
Not available.

Snow Depth

Station Depth Elevation

Earthquake Activity

City Distance Mag. Time & Date
Minimum magnitude displayed is 2.5.

Coastal Water Temperatures

Place Temperature

Stations

Nearby Weather Stations

Station Location Temp. Windchill Dew Point Humidity Wind Precip. Elev Updated Type
                   

Watches & Warnings

There are currently no watches in effect.